Time;durP1;ratioP1;P1;durP2;ratioP2;P2;SDS_P1;SDS_P2;PMS_P1;PMS_P2;Temp;Humidity;BMP_temperature;BMP_pressure;BME280_temperature;BME280_humidity;BME280_pressure;Samples;Min_cycle;Max_cycle;Signal;HPM_P1;HPM_P2
2022/10/03 00:02:28;;;;;;;;;;;;;;;;;;5055195;28;20322;-83
2022/10/03 00:05:23;;;;;;;;;;;;;;;;;;5054969;28;20282;-83
2022/10/03 00:08:03;;;;;;;;;;;;;;;;;;5018760;28;19980;-83
2022/10/03 00:10:34;;;;;;;;;;;;;;;;;;5056059;28;19987;-83
2022/10/03 00:13:00;;;;;;;;;;;;;;;;;;5056132;28;20011;-83
2022/10/03 00:15:31;;;;;;;;;;;;;;;;;;5055860;28;19998;-83
2022/10/03 00:18:01;;;;;;;;;;;;;;;;;;5056276;28;19916;-82
2022/10/03 00:20:35;;;;;;;;;;;;;;;;;;5038337;28;19917;-83
2022/10/03 00:23:06;;;;;;;;;;;;;;;;;;5055574;28;19964;-83
2022/10/03 00:25:42;;;;;;;;;;;;;;;;;;5054570;28;19924;-84
2022/10/03 00:28:40;;;;;;;;;;;;;;;;;;5037893;28;19916;-83
2022/10/03 00:31:12;;;;;;;;;;;;;;;;;;5038143;28;19939;-84
2022/10/03 00:33:48;;;;;;;;;;;;;;;;;;5054311;28;20368;-83
2022/10/03 00:36:22;;;;;;;;;;;;;;;;;;5054079;28;19916;-83
2022/10/03 00:38:51;;;;;;;;;;;;;;;;;;5037757;28;19935;-83
2022/10/03 00:41:22;;;;;;;;;;;;;;;;;;5055758;28;20262;-84
2022/10/03 00:44:06;;;;;;;;;;;;;;;;;;5054117;28;19917;-83
2022/10/03 00:46:50;;;;;;;;;;;;;;;;;;5055234;28;19924;-84
2022/10/03 00:49:34;;;;;;;;;;;;;;;;;;5054936;28;20072;-83
2022/10/03 00:52:18;;;;;;;;;;;;;;;;;;5037109;28;19917;-83
2022/10/03 00:54:51;;;;;;;;;;;;;;;;;;5037518;28;19917;-83
2022/10/03 00:57:34;;;;;;;;;;;;;;;;;;5055020;28;19917;-83
2022/10/03 01:00:17;;;;;;;;;;;;;;;;;;5054997;28;19916;-82
2022/10/03 01:02:42;;;;;;;;;;;;;;;;;;5037204;28;19956;-83
2022/10/03 01:05:40;;;;;;;;;;;;;;;;;;5037152;28;19958;-83
2022/10/03 01:08:08;;;;;;;;;;;;;;;;;;5021143;28;19924;-82
2022/10/03 01:10:38;;;;;;;;;;;;;;;;;;5037072;28;20273;-83
2022/10/03 01:13:22;;;;;;;;;;;;;;;;;;5054778;28;19923;-83
2022/10/03 01:15:53;;;;;;;;;;;;;;;;;;5054699;28;19916;-84
2022/10/03 01:18:19;;;;;;;;;;;;;;;;;;5054626;28;20335;-84
2022/10/03 01:20:47;;;;;;;;;;;;;;;;;;5054541;28;19917;-82
2022/10/03 01:23:31;;;;;;;;;;;;;;;;;;5036710;28;19960;-83
2022/10/03 01:26:15;;;;;;;;;;;;;;;;;;5054814;28;19975;-84
2022/10/03 01:31:37;;;;;;;;;;;;;;;;;;5054404;28;19947;-84
2022/10/03 01:34:16;;;;;;;;;;;;;;;;;;5020336;28;19971;-83
2022/10/03 01:36:51;;;;;;;;;;;;;;;;;;5036699;28;19991;-83
2022/10/03 01:39:36;;;;;;;;;;;;;;;;;;5055059;28;19917;-83
2022/10/03 01:42:10;;;;;;;;;;;;;;;;;;5036693;28;19916;-83
2022/10/03 01:44:39;;;;;;;;;;;;;;;;;;5036623;28;19975;-83
2022/10/03 01:47:04;;;;;;;;;;;;;;;;;;5054349;28;20381;-83
2022/10/03 01:49:33;;;;;;;;;;;;;;;;;;5036570;28;19956;-84
2022/10/03 01:52:04;;;;;;;;;;;;;;;;;;5054196;28;19917;-83
2022/10/03 01:54:30;;;;;;;;;;;;;;;;;;5053752;28;20266;-83
2022/10/03 01:56:59;;;;;;;;;;;;;;;;;;5054973;28;19917;-84
2022/10/03 01:59:27;;;;;;;;;;;;;;;;;;5053183;28;20317;-83
2022/10/03 02:02:07;;;;;;;;;;;;;;;;;;5053878;28;20019;-83
2022/10/03 02:04:32;;;;;;;;;;;;;;;;;;5037604;28;19917;-84
2022/10/03 02:07:10;;;;;;;;;;;;;;;;;;5055234;28;19924;-82
2022/10/03 02:09:40;;;;;;;;;;;;;;;;;;5076691;28;19905;-84
2022/10/03 02:12:21;;;;;;;;;;;;;;;;;;5058871;28;19908;-84
2022/10/03 02:15:06;;;;;;;;;;;;;;;;;;5075518;28;19912;-82
2022/10/03 02:17:51;;;;;;;;;;;;;;;;;;5058764;28;19909;-83
2022/10/03 02:20:28;;;;;;;;;;;;;;;;;;5068715;28;19917;-84
2022/10/03 02:22:54;;;;;;;;;;;;;;;;;;5053308;28;19912;-83
2022/10/03 02:25:30;;;;;;;;;;;;;;;;;;5052905;28;19924;-83
2022/10/03 02:27:56;;;;;;;;;;;;;;;;;;5053947;28;20246;-82
2022/10/03 02:30:27;;;;;;;;;;;;;;;;;;5053479;28;19916;-83
2022/10/03 02:33:17;;;;;;;;;;;;;;;;;;5056750;28;19999;-83
2022/10/03 02:35:46;;;;;;;;;;;;;;;;;;5059409;28;20023;-83
2022/10/03 02:38:22;;;;;;;;;;;;;;;;;;5058594;28;19917;-83
2022/10/03 02:41:06;;;;;;;;;;;;;;;;;;5056078;28;19917;-83
2022/10/03 02:43:46;;;;;;;;;;;;;;;;;;5054666;28;19917;-82
2022/10/03 02:46:15;;;;;;;;;;;;;;;;;;5053837;28;19924;-83
2022/10/03 02:48:46;;;;;;;;;;;;;;;;;;5052556;28;20596;-83
2022/10/03 02:51:19;;;;;;;;;;;;;;;;;;5053840;28;19917;-83
2022/10/03 02:53:49;;;;;;;;;;;;;;;;;;5052939;28;20235;-84
2022/10/03 02:56:33;;;;;;;;;;;;;;;;;;5053013;28;20315;-82
2022/10/03 02:58:59;;;;;;;;;;;;;;;;;;5036106;28;19928;-83
2022/10/03 03:01:36;;;;;;;;;;;;;;;;;;5036188;28;20239;-84
2022/10/03 03:04:11;;;;;;;;;;;;;;;;;;5036221;28;19974;-83
2022/10/03 03:06:55;;;;;;;;;;;;;;;;;;5038918;28;20323;-83
2022/10/03 03:09:42;;;;;;;;;;;;;;;;;;5057474;28;19917;-83
2022/10/03 03:12:07;;;;;;;;;;;;;;;;;;5057392;28;19967;-84
2022/10/03 03:14:36;;;;;;;;;;;;;;;;;;5039450;28;19921;-84
2022/10/03 03:17:23;;;;;;;;;;;;;;;;;;5057113;28;20225;-83
2022/10/03 03:20:03;;;;;;;;;;;;;;;;;;5039422;28;19921;-83
2022/10/03 03:22:31;;;;;;;;;;;;;;;;;;5057028;28;19952;-84
2022/10/03 03:25:09;;;;;;;;;;;;;;;;;;5057008;28;19920;-83
2022/10/03 03:28:01;;;;;;;;;;;;;;;;;;5039339;28;19917;-83
2022/10/03 03:30:29;;;;;;;;;;;;;;;;;;5033173;28;19952;-84
2022/10/03 03:33:04;;;;;;;;;;;;;;;;;;5057293;28;19924;-83
2022/10/03 03:35:38;;;;;;;;;;;;;;;;;;5022822;28;20167;-84
2022/10/03 03:38:23;;;;;;;;;;;;;;;;;;5056971;28;19916;-83
2022/10/03 03:41:00;;;;;;;;;;;;;;;;;;5038987;28;19917;-84
2022/10/03 03:43:43;;;;;;;;;;;;;;;;;;5038694;28;20376;-84
2022/10/03 03:46:15;;;;;;;;;;;;;;;;;;5039006;28;19924;-83
2022/10/03 03:48:52;;;;;;;;;;;;;;;;;;5056702;28;19985;-84
2022/10/03 03:51:18;;;;;;;;;;;;;;;;;;5022830;28;19916;-83
2022/10/03 03:53:52;;;;;;;;;;;;;;;;;;5056522;28;20326;-83
2022/10/03 03:56:36;;;;;;;;;;;;;;;;;;5039220;28;19923;-83
2022/10/03 03:59:20;;;;;;;;;;;;;;;;;;5056352;28;19921;-83
2022/10/03 04:02:07;;;;;;;;;;;;;;;;;;5056449;28;20006;-83
2022/10/03 04:04:35;;;;;;;;;;;;;;;;;;5056409;28;19917;-83
2022/10/03 04:07:06;;;;;;;;;;;;;;;;;;5056282;28;19989;-82
2022/10/03 04:09:51;;;;;;;;;;;;;;;;;;5038925;28;19923;-84
2022/10/03 04:12:23;;;;;;;;;;;;;;;;;;5055988;28;19917;-84
2022/10/03 04:15:04;;;;;;;;;;;;;;;;;;5038286;28;19924;-84
2022/10/03 04:20:38;;;;;;;;;;;;;;;;;;5056137;28;20050;-82
2022/10/03 04:23:22;;;;;;;;;;;;;;;;;;5056046;28;20012;-82
2022/10/03 04:25:53;;;;;;;;;;;;;;;;;;5056234;28;19916;-82
2022/10/03 04:28:33;;;;;;;;;;;;;;;;;;5055566;28;19963;-83
2022/10/03 04:31:04;;;;;;;;;;;;;;;;;;5055900;28;19917;-83
2022/10/03 04:33:42;;;;;;;;;;;;;;;;;;5038439;28;20219;-82
2022/10/03 04:36:36;;;;;;;;;;;;;;;;;;5038421;28;19921;-83
2022/10/03 04:39:09;;;;;;;;;;;;;;;;;;5041372;28;19925;-83
2022/10/03 04:41:39;;;;;;;;;;;;;;;;;;5021063;28;20331;-84
2022/10/03 04:44:09;;;;;;;;;;;;;;;;;;5055851;28;19917;-85
2022/10/03 04:46:45;;;;;;;;;;;;;;;;;;5055809;28;19919;-84
2022/10/03 04:49:42;;;;;;;;;;;;;;;;;;5038061;28;19916;-84
2022/10/03 04:52:11;;;;;;;;;;;;;;;;;;5021167;28;20250;-84
2022/10/03 04:54:41;;;;;;;;;;;;;;;;;;5055518;28;20947;-83
2022/10/03 04:57:10;;;;;;;;;;;;;;;;;;5055922;28;20257;-84
2022/10/03 04:59:37;;;;;;;;;;;;;;;;;;5021253;28;19983;-84
2022/10/03 05:02:05;;;;;;;;;;;;;;;;;;5037750;28;20357;-83
2022/10/03 05:04:44;;;;;;;;;;;;;;;;;;5037523;28;19955;-84
2022/10/03 05:07:19;;;;;;;;;;;;;;;;;;5037716;28;19959;-83
2022/10/03 05:09:49;;;;;;;;;;;;;;;;;;5037452;28;19916;-83
2022/10/03 05:12:34;;;;;;;;;;;;;;;;;;5054810;28;19917;-82
2022/10/03 05:15:07;;;;;;;;;;;;;;;;;;5055144;28;20026;-85
2022/10/03 05:17:43;;;;;;;;;;;;;;;;;;5037135;28;19917;-84
2022/10/03 05:20:23;;;;;;;;;;;;;;;;;;5021115;28;19917;-84
2022/10/03 05:23:07;;;;;;;;;;;;;;;;;;5054809;28;20356;-83
2022/10/03 05:25:37;;;;;;;;;;;;;;;;;;5054672;28;19917;-83
2022/10/03 05:28:03;;;;;;;;;;;;;;;;;;5054381;28;19921;-83
2022/10/03 05:30:34;;;;;;;;;;;;;;;;;;5041546;28;20245;-83
2022/10/03 05:33:02;;;;;;;;;;;;;;;;;;5075037;28;19923;-83
2022/10/03 05:35:32;;;;;;;;;;;;;;;;;;5073546;28;20317;-83
2022/10/03 05:38:15;;;;;;;;;;;;;;;;;;5056899;28;19924;-83
2022/10/03 05:40:42;;;;;;;;;;;;;;;;;;5074457;28;19916;-83
2022/10/03 05:43:26;;;;;;;;;;;;;;;;;;5073521;28;19917;-83
2022/10/03 05:46:15;;;;;;;;;;;;;;;;;;5074521;28;19917;-83
2022/10/03 05:48:53;;;;;;;;;;;;;;;;;;5028973;28;19924;-84
2022/10/03 05:51:21;;;;;;;;;;;;;;;;;;5073263;28;19917;-83
2022/10/03 05:53:59;;;;;;;;;;;;;;;;;;5074224;28;19916;-83
2022/10/03 05:56:43;;;;;;;;;;;;;;;;;;5074254;28;20319;-83
2022/10/03 05:59:08;;;;;;;;;;;;;;;;;;5074099;28;19988;-82
2022/10/03 06:01:57;;;;;;;;;;;;;;;;;;5074312;28;19981;-83
2022/10/03 06:04:29;;;;;;;;;;;;;;;;;;5028955;28;19924;-84
2022/10/03 06:07:13;;;;;;;;;;;;;;;;;;5074733;28;19999;-84
2022/10/03 06:09:53;;;;;;;;;;;;;;;;;;5074775;28;19912;-84
2022/10/03 06:12:27;;;;;;;;;;;;;;;;;;5057647;28;20007;-84
2022/10/03 06:15:18;;;;;;;;;;;;;;;;;;5077439;28;19916;-83
2022/10/03 06:17:50;;;;;;;;;;;;;;;;;;5074220;28;20004;-79
2022/10/03 06:20:47;;;;;;;;;;;;;;;;;;5072835;28;19963;-79
2022/10/03 06:23:13;;;;;;;;;;;;;;;;;;5029377;28;20389;-80
2022/10/03 06:25:41;;;;;;;;;;;;;;;;;;5074251;28;19948;-78
2022/10/03 06:28:25;;;;;;;;;;;;;;;;;;5073956;28;20253;-80
2022/10/03 06:30:53;;;;;;;;;;;;;;;;;;5073993;28;19991;-80
2022/10/03 06:33:31;;;;;;;;;;;;;;;;;;5074051;28;19923;-79
2022/10/03 06:36:07;;;;;;;;;;;;;;;;;;5073671;28;20385;-78
2022/10/03 06:38:36;;;;;;;;;;;;;;;;;;5072262;28;19917;-79
2022/10/03 06:41:24;;;;;;;;;;;;;;;;;;5077940;28;19916;-81
2022/10/03 06:44:09;;;;;;;;;;;;;;;;;;5067028;28;19921;-81
2022/10/03 06:46:34;;;;;;;;;;;;;;;;;;5077887;28;19917;-80
2022/10/03 06:49:32;;;;;;;;;;;;;;;;;;5077577;28;20238;-81
2022/10/03 06:51:57;;;;;;;;;;;;;;;;;;5026715;28;19916;-81
2022/10/03 06:54:32;;;;;;;;;;;;;;;;;;5077556;28;20015;-78
2022/10/03 06:57:12;;;;;;;;;;;;;;;;;;5077451;28;19917;-80
2022/10/03 06:59:49;;;;;;;;;;;;;;;;;;5077704;28;20153;-77
2022/10/03 07:02:15;;;;;;;;;;;;;;;;;;5093228;28;20011;-76
2022/10/03 07:04:53;;;;;;;;;;;;;;;;;;5077562;28;19979;-79
2022/10/03 07:07:19;;;;;;;;;;;;;;;;;;5093153;28;19959;-82
2022/10/03 07:09:53;;;;;;;;;;;;;;;;;;5077709;28;19966;-80
2022/10/03 07:12:25;;;;;;;;;;;;;;;;;;5077607;28;19916;-80
2022/10/03 07:15:12;;;;;;;;;;;;;;;;;;5078337;28;19923;-80
2022/10/03 07:17:56;;;;;;;;;;;;;;;;;;5077198;28;19923;-79
2022/10/03 07:20:21;;;;;;;;;;;;;;;;;;5077842;28;19917;-82
2022/10/03 07:22:56;;;;;;;;;;;;;;;;;;5077319;28;19916;-79
2022/10/03 07:25:24;;;;;;;;;;;;;;;;;;5077113;28;19923;-80
2022/10/03 07:27:59;;;;;;;;;;;;;;;;;;5077075;28;20337;-80
2022/10/03 07:30:25;;;;;;;;;;;;;;;;;;5076940;28;20325;-80
2022/10/03 07:32:53;;;;;;;;;;;;;;;;;;5092677;28;19923;-79
2022/10/03 07:38:59;;;;;;;;;;;;;;;;;;5076908;28;19923;-83
2022/10/03 07:41:43;;;;;;;;;;;;;;;;;;5076775;28;19956;-81
2022/10/03 07:44:11;;;;;;;;;;;;;;;;;;5076980;28;19916;-81
2022/10/03 07:46:39;;;;;;;;;;;;;;;;;;5076801;28;19912;-83
2022/10/03 07:49:17;;;;;;;;;;;;;;;;;;5075318;28;19996;-81
2022/10/03 07:52:09;;;;;;;;;;;;;;;;;;5074301;28;19913;-80
2022/10/03 07:54:50;;;;;;;;;;;;;;;;;;5087803;28;19923;-81
2022/10/03 07:57:22;;;;;;;;;;;;;;;;;;5076413;28;19974;-85
2022/10/03 07:59:48;;;;;;;;;;;;;;;;;;5076543;28;19917;-81
2022/10/03 08:02:20;;;;;;;;;;;;;;;;;;5076444;28;20011;-81
2022/10/03 08:04:54;;;;;;;;;;;;;;;;;;5058692;28;19916;-82
2022/10/03 08:07:37;;;;;;;;;;;;;;;;;;5076338;28;19917;-79
2022/10/03 08:10:03;;;;;;;;;;;;;;;;;;5058451;28;19921;-79
2022/10/03 08:12:44;;;;;;;;;;;;;;;;;;5058702;28;20280;-81
2022/10/03 08:15:09;;;;;;;;;;;;;;;;;;5077974;28;20290;-79
2022/10/03 08:17:41;;;;;;;;;;;;;;;;;;5077144;28;19955;-83
2022/10/03 08:20:27;;;;;;;;;;;;;;;;;;5075097;28;19923;-89
2022/10/03 08:23:02;;;;;;;;;;;;;;;;;;5075398;28;19921;-79
2022/10/03 08:25:39;;;;;;;;;;;;;;;;;;5077366;28;19938;-83
2022/10/03 08:28:07;;;;;;;;;;;;;;;;;;5078232;28;19920;-87
2022/10/03 08:30:51;;;;;;;;;;;;;;;;;;5078069;28;19916;-84
2022/10/03 08:33:17;;;;;;;;;;;;;;;;;;5077947;28;19916;-91
2022/10/03 08:36:01;;;;;;;;;;;;;;;;;;5079870;28;19973;-81
2022/10/03 08:38:31;;;;;;;;;;;;;;;;;;5077332;28;20027;-85
2022/10/03 08:41:11;;;;;;;;;;;;;;;;;;5076779;28;19921;-84
2022/10/03 08:43:39;;;;;;;;;;;;;;;;;;5074292;28;19912;-82
2022/10/03 08:46:05;;;;;;;;;;;;;;;;;;5075829;28;19974;-80
2022/10/03 08:48:40;;;;;;;;;;;;;;;;;;5075275;28;19912;-78
2022/10/03 08:51:09;;;;;;;;;;;;;;;;;;5075688;28;19923;-82
2022/10/03 08:53:37;;;;;;;;;;;;;;;;;;5057882;28;19946;-80
2022/10/03 08:56:31;;;;;;;;;;;;;;;;;;5075606;28;19965;-80
2022/10/03 08:59:15;;;;;;;;;;;;;;;;;;5074902;28;19920;-79
2022/10/03 09:02:16;;;;;;;;;;;;;;;;;;5075210;28;19916;-77
2022/10/03 09:05:01;;;;;;;;;;;;;;;;;;4992563;28;20365;-79
2022/10/03 09:07:36;;;;;;;;;;;;;;;;;;5069292;28;20281;-80
2022/10/03 09:10:19;;;;;;;;;;;;;;;;;;5074820;28;19917;-79
2022/10/03 09:13:04;;;;;;;;;;;;;;;;;;5073454;28;19922;-78
2022/10/03 09:16:00;;;;;;;;;;;;;;;;;;5074784;28;19916;-82
2022/10/03 09:18:29;;;;;;;;;;;;;;;;;;5056371;28;19917;-78
2022/10/03 09:21:06;;;;;;;;;;;;;;;;;;5074679;28;19916;-80
2022/10/03 09:23:32;;;;;;;;;;;;;;;;;;5074563;28;19919;-77
2022/10/03 09:26:15;;;;;;;;;;;;;;;;;;5074667;28;19917;-79
2022/10/03 09:28:47;;;;;;;;;;;;;;;;;;5074344;28;20357;-79
2022/10/03 09:31:30;;;;;;;;;;;;;;;;;;5074234;28;19917;-79
2022/10/03 09:34:02;;;;;;;;;;;;;;;;;;5056914;28;19913;-81
2022/10/03 09:36:46;;;;;;;;;;;;;;;;;;5073211;28;19999;-82
2022/10/03 09:39:11;;;;;;;;;;;;;;;;;;5056381;28;19916;-76
2022/10/03 09:41:39;;;;;;;;;;;;;;;;;;5074268;28;19928;-78
2022/10/03 09:44:17;;;;;;;;;;;;;;;;;;5074250;28;19916;-80
2022/10/03 09:49:58;;;;;;;;;;;;;;;;;;5074295;28;19923;-79
2022/10/03 09:52:33;;;;;;;;;;;;;;;;;;5074420;28;19920;-78
2022/10/03 09:55:17;;;;;;;;;;;;;;;;;;5074250;28;19916;-79
2022/10/03 09:58:05;;;;;;;;;;;;;;;;;;5074364;28;19920;-79
2022/10/03 10:00:35;;;;;;;;;;;;;;;;;;5056358;28;19928;-78
2022/10/03 10:03:07;;;;;;;;;;;;;;;;;;5073022;28;19962;-82
2022/10/03 10:05:50;;;;;;;;;;;;;;;;;;5074617;28;19917;-79
2022/10/03 10:08:30;;;;;;;;;;;;;;;;;;5074567;28;19917;-77
2022/10/03 10:10:57;;;;;;;;;;;;;;;;;;5072982;28;19970;-82
2022/10/03 10:13:34;;;;;;;;;;;;;;;;;;5073110;28;19970;-77
2022/10/03 10:16:18;;;;;;;;;;;;;;;;;;5077671;28;20330;-80
2022/10/03 10:19:02;;;;;;;;;;;;;;;;;;5077999;28;19924;-80
2022/10/03 10:21:39;;;;;;;;;;;;;;;;;;5078139;28;19920;-81
2022/10/03 10:24:23;;;;;;;;;;;;;;;;;;5076661;28;19923;-78
2022/10/03 10:26:48;;;;;;;;;;;;;;;;;;5078240;28;20296;-80
2022/10/03 10:29:34;;;;;;;;;;;;;;;;;;5059845;28;19917;-83
2022/10/03 10:32:09;;;;;;;;;;;;;;;;;;5076573;28;19913;-79
2022/10/03 10:34:35;;;;;;;;;;;;;;;;;;5077877;28;19916;-77
2022/10/03 10:37:06;;;;;;;;;;;;;;;;;;5077658;28;19912;-80
2022/10/03 10:39:31;;;;;;;;;;;;;;;;;;5077806;28;19923;-79
2022/10/03 10:41:57;;;;;;;;;;;;;;;;;;5077896;28;19912;-80
2022/10/03 10:44:22;;;;;;;;;;;;;;;;;;5077342;28;19917;-80
2022/10/03 10:46:50;;;;;;;;;;;;;;;;;;5077910;28;19916;-78
2022/10/03 10:49:28;;;;;;;;;;;;;;;;;;5077427;28;19995;-78
2022/10/03 10:51:56;;;;;;;;;;;;;;;;;;5076579;28;19917;-77
2022/10/03 10:54:47;;;;;;;;;;;;;;;;;;5077450;28;19963;-80
2022/10/03 10:57:29;;;;;;;;;;;;;;;;;;5073143;28;19917;-79
2022/10/03 11:00:07;;;;;;;;;;;;;;;;;;5075919;28;19916;-78
2022/10/03 11:02:33;;;;;;;;;;;;;;;;;;5077197;28;19964;-81
2022/10/03 11:05:17;;;;;;;;;;;;;;;;;;5059751;28;19959;-81
2022/10/03 11:07:58;;;;;;;;;;;;;;;;;;5077267;28;20425;-81
2022/10/03 11:10:26;;;;;;;;;;;;;;;;;;5077503;28;19923;-81
2022/10/03 11:13:07;;;;;;;;;;;;;;;;;;5076990;28;19917;-79
2022/10/03 11:15:51;;;;;;;;;;;;;;;;;;5078126;28;19923;-83
2022/10/03 11:18:35;;;;;;;;;;;;;;;;;;5078357;28;20007;-79
2022/10/03 11:21:09;;;;;;;;;;;;;;;;;;5078299;28;20034;-80
2022/10/03 11:23:48;;;;;;;;;;;;;;;;;;5060165;28;19966;-79
2022/10/03 11:26:23;;;;;;;;;;;;;;;;;;5075087;28;20408;-78
2022/10/03 11:29:08;;;;;;;;;;;;;;;;;;5077133;28;20011;-80
2022/10/03 11:31:48;;;;;;;;;;;;;;;;;;5077522;28;20248;-77
2022/10/03 11:34:26;;;;;;;;;;;;;;;;;;5076213;28;20011;-79
2022/10/03 11:37:06;;;;;;;;;;;;;;;;;;5076771;28;20261;-78
2022/10/03 11:39:46;;;;;;;;;;;;;;;;;;5076652;28;20243;-79
2022/10/03 11:42:24;;;;;;;;;;;;;;;;;;5076287;28;19916;-81
2022/10/03 11:44:55;;;;;;;;;;;;;;;;;;5076778;28;20253;-78
2022/10/03 11:47:39;;;;;;;;;;;;;;;;;;5076542;28;20007;-79
2022/10/03 11:50:25;;;;;;;;;;;;;;;;;;5076141;28;19924;-78
2022/10/03 11:52:57;;;;;;;;;;;;;;;;;;5062220;28;20299;-79
2022/10/03 11:55:28;;;;;;;;;;;;;;;;;;5076488;28;19979;-79
2022/10/03 11:58:12;;;;;;;;;;;;;;;;;;5076078;28;19943;-82
2022/10/03 12:00:38;;;;;;;;;;;;;;;;;;5076387;28;19974;-81
2022/10/03 12:03:03;;;;;;;;;;;;;;;;;;5076685;28;20284;-82
2022/10/03 12:05:45;;;;;;;;;;;;;;;;;;5076044;28;19944;-86
2022/10/03 12:11:08;;;;;;;;;;;;;;;;;;5075396;28;19983;-84
2022/10/03 12:13:36;;;;;;;;;;;;;;;;;;5077313;28;19966;-84
2022/10/03 12:19:29;;;;;;;;;;;;;;;;;;5044685;28;19974;-85
2022/10/03 12:22:14;;;;;;;;;;;;;;;;;;5035295;28;20007;-86
2022/10/03 12:24:48;;;;;;;;;;;;;;;;;;5034545;28;19999;-86
2022/10/03 12:27:22;;;;;;;;;;;;;;;;;;5018231;28;19920;-86
2022/10/03 12:29:53;;;;;;;;;;;;;;;;;;5035511;28;20309;-84
2022/10/03 12:32:37;;;;;;;;;;;;;;;;;;5017745;28;19914;-85
2022/10/03 12:35:41;;;;;;;;;;;;;;;;;;5034727;28;19921;-86
2022/10/03 12:41:33;;;;;;;;;;;;;;;;;;5090736;22;19947;-87
2022/10/03 12:44:36;;;;;;;;;;;;;;;;;;5095806;28;19916;-85
2022/10/03 12:47:26;;;;;;;;;;;;;;;;;;5095968;28;19974;-87
2022/10/03 12:49:55;;;;;;;;;;;;;;;;;;5094574;28;19946;-86
2022/10/03 12:52:33;;;;;;;;;;;;;;;;;;5096666;28;20381;-88
2022/10/03 12:55:05;;;;;;;;;;;;;;;;;;5095075;28;20006;-88
2022/10/03 12:57:39;;;;;;;;;;;;;;;;;;5112262;28;19916;-88
2022/10/03 13:00:05;;;;;;;;;;;;;;;;;;5094811;28;19923;-88
2022/10/03 13:02:42;;;;;;;;;;;;;;;;;;5112135;28;20241;-87
2022/10/03 13:05:30;;;;;;;;;;;;;;;;;;5095774;28;20367;-88
2022/10/03 13:08:01;;;;;;;;;;;;;;;;;;5094446;28;20329;-88
2022/10/03 13:10:35;;;;;;;;;;;;;;;;;;5095395;28;19916;-86
2022/10/03 13:13:19;;;;;;;;;;;;;;;;;;5111941;28;19924;-84
2022/10/03 13:15:52;;;;;;;;;;;;;;;;;;5096229;28;19922;-87
2022/10/03 13:18:26;;;;;;;;;;;;;;;;;;5111606;28;19951;-89
2022/10/03 13:21:10;;;;;;;;;;;;;;;;;;5095323;28;19916;-87
2022/10/03 13:23:41;;;;;;;;;;;;;;;;;;5095539;28;19916;-88
2022/10/03 13:26:18;;;;;;;;;;;;;;;;;;5094929;28;19927;-87
2022/10/03 13:29:19;;;;;;;;;;;;;;;;;;5094260;28;19956;-90
2022/10/03 13:31:44;;;;;;;;;;;;;;;;;;5059424;28;19973;-88
2022/10/03 13:37:37;;;;;;;;;;;;;;;;;;5100014;28;20331;-87
2022/10/03 13:40:07;;;;;;;;;;;;;;;;;;5110233;28;19920;-90
2022/10/03 13:42:33;;;;;;;;;;;;;;;;;;5111364;28;20319;-89
2022/10/03 13:45:11;;;;;;;;;;;;;;;;;;5111384;28;19959;-87
2022/10/03 13:47:51;;;;;;;;;;;;;;;;;;5096015;28;19916;-90
2022/10/03 13:50:27;;;;;;;;;;;;;;;;;;5092956;28;20218;-87
2022/10/03 13:53:00;;;;;;;;;;;;;;;;;;5093565;28;20250;-87
2022/10/03 13:55:40;;;;;;;;;;;;;;;;;;5096865;28;19916;-86
2022/10/03 13:58:25;;;;;;;;;;;;;;;;;;5108255;28;19926;-89
2022/10/03 14:01:02;;;;;;;;;;;;;;;;;;5094878;28;20476;-88
2022/10/03 14:03:28;;;;;;;;;;;;;;;;;;5110791;28;19924;-87
2022/10/03 14:05:56;;;;;;;;;;;;;;;;;;5110892;28;20036;-88
2022/10/03 14:08:46;;;;;;;;;;;;;;;;;;5093797;28;20317;-86
2022/10/03 14:11:31;;;;;;;;;;;;;;;;;;5094579;28;19965;-88
2022/10/03 14:17:01;;;;;;;;;;;;;;;;;;5095986;28;20067;-86
2022/10/03 14:19:45;;;;;;;;;;;;;;;;;;5096027;28;19916;-89
2022/10/03 14:22:48;;;;;;;;;;;;;;;;;;5098845;28;19916;-90
2022/10/03 14:25:41;;;;;;;;;;;;;;;;;;5098357;28;19924;-87
2022/10/03 14:28:26;;;;;;;;;;;;;;;;;;5099262;28;20033;-88
2022/10/03 14:31:15;;;;;;;;;;;;;;;;;;5097540;28;19916;-87
2022/10/03 14:33:59;;;;;;;;;;;;;;;;;;5109050;28;19904;-88
2022/10/03 14:36:34;;;;;;;;;;;;;;;;;;5116424;28;19911;-88
2022/10/03 14:39:06;;;;;;;;;;;;;;;;;;5114233;28;19988;-89
2022/10/03 14:41:31;;;;;;;;;;;;;;;;;;5107170;28;19924;-88
2022/10/03 14:44:17;;;;;;;;;;;;;;;;;;5095791;28;19912;-89
2022/10/03 14:47:15;;;;;;;;;;;;;;;;;;5085016;28;19923;-89
2022/10/03 14:49:47;;;;;;;;;;;;;;;;;;5073695;28;19921;-89
2022/10/03 14:52:30;;;;;;;;;;;;;;;;;;5073680;28;19971;-87
2022/10/03 14:54:57;;;;;;;;;;;;;;;;;;5074871;28;19962;-89
2022/10/03 14:57:53;;;;;;;;;;;;;;;;;;5072657;28;19959;-90
2022/10/03 15:00:56;;;;;;;;;;;;;;;;;;5059773;28;19920;-87
2022/10/03 15:03:22;;;;;;;;;;;;;;;;;;5058998;28;20171;-85
2022/10/03 15:06:07;;;;;;;;;;;;;;;;;;5061433;28;19939;-89
2022/10/03 15:08:52;;;;;;;;;;;;;;;;;;5060310;28;19921;-87
2022/10/03 15:11:22;;;;;;;;;;;;;;;;;;5059049;28;20011;-86
2022/10/03 15:13:56;;;;;;;;;;;;;;;;;;5059593;28;19916;-87
2022/10/03 15:16:22;;;;;;;;;;;;;;;;;;5080958;28;19916;-87
2022/10/03 15:18:57;;;;;;;;;;;;;;;;;;5075220;28;19916;-87
2022/10/03 15:21:23;;;;;;;;;;;;;;;;;;5075210;28;20259;-88
2022/10/03 15:24:02;;;;;;;;;;;;;;;;;;5076657;28;20296;-87
2022/10/03 15:26:34;;;;;;;;;;;;;;;;;;5060096;28;19916;-90
2022/10/03 15:29:01;;;;;;;;;;;;;;;;;;5058978;28;19916;-88
2022/10/03 15:31:53;;;;;;;;;;;;;;;;;;5075865;28;19966;-86
2022/10/03 15:34:38;;;;;;;;;;;;;;;;;;5075868;28;19916;-89
2022/10/03 15:37:16;;;;;;;;;;;;;;;;;;5076836;28;20365;-86
2022/10/03 15:39:44;;;;;;;;;;;;;;;;;;5059835;28;20425;-86
2022/10/03 15:42:09;;;;;;;;;;;;;;;;;;5100379;28;19924;-89
2022/10/03 15:45:02;;;;;;;;;;;;;;;;;;5114148;28;20363;-87
2022/10/03 15:47:31;;;;;;;;;;;;;;;;;;5095950;28;19965;-88
2022/10/03 15:50:06;;;;;;;;;;;;;;;;;;5113140;28;20269;-87
2022/10/03 15:52:40;;;;;;;;;;;;;;;;;;5113246;28;19923;-87
2022/10/03 15:55:08;;;;;;;;;;;;;;;;;;5111412;28;19950;-88
2022/10/03 15:57:38;;;;;;;;;;;;;;;;;;5096699;28;19923;-87
2022/10/03 16:00:06;;;;;;;;;;;;;;;;;;5113004;28;19916;-90
2022/10/03 16:02:51;;;;;;;;;;;;;;;;;;5112936;28;19916;-86
2022/10/03 16:05:21;;;;;;;;;;;;;;;;;;5096364;28;20224;-91
2022/10/03 16:07:53;;;;;;;;;;;;;;;;;;5113507;28;19973;-89
2022/10/03 16:10:22;;;;;;;;;;;;;;;;;;5097355;28;20003;-88
2022/10/03 16:13:08;;;;;;;;;;;;;;;;;;5095732;28;19917;-89
2022/10/03 16:15:53;;;;;;;;;;;;;;;;;;5096150;28;19938;-86
2022/10/03 16:18:18;;;;;;;;;;;;;;;;;;5095576;28;20003;-90
2022/10/03 16:21:01;;;;;;;;;;;;;;;;;;5097230;28;20008;-87
2022/10/03 16:23:33;;;;;;;;;;;;;;;;;;5096594;28;20314;-92
2022/10/03 16:26:25;;;;;;;;;;;;;;;;;;5095260;28;19916;-86
2022/10/03 16:29:10;;;;;;;;;;;;;;;;;;5093633;28;19916;-87
2022/10/03 16:31:40;;;;;;;;;;;;;;;;;;5112927;28;19916;-88
2022/10/03 16:34:06;;;;;;;;;;;;;;;;;;5095840;28;19916;-89
2022/10/03 16:36:32;;;;;;;;;;;;;;;;;;5095949;28;19916;-88
2022/10/03 16:38:58;;;;;;;;;;;;;;;;;;5095899;28;19916;-88
2022/10/03 16:41:34;;;;;;;;;;;;;;;;;;5094843;28;19940;-89
2022/10/03 16:44:00;;;;;;;;;;;;;;;;;;5094823;28;19916;-87
2022/10/03 16:46:40;;;;;;;;;;;;;;;;;;5111484;28;19916;-88
2022/10/03 16:52:11;;;;;;;;;;;;;;;;;;5110622;28;19923;-90
2022/10/03 16:54:39;;;;;;;;;;;;;;;;;;5095743;28;20066;-90
2022/10/03 16:57:08;;;;;;;;;;;;;;;;;;5112813;28;19963;-88
2022/10/03 16:59:33;;;;;;;;;;;;;;;;;;5096840;28;20298;-85
2022/10/03 17:02:05;;;;;;;;;;;;;;;;;;5112862;28;19916;-86
2022/10/03 17:04:32;;;;;;;;;;;;;;;;;;5097818;28;19923;-88
2022/10/03 17:07:01;;;;;;;;;;;;;;;;;;5096915;28;20253;-86
2022/10/03 17:09:26;;;;;;;;;;;;;;;;;;5113540;28;19916;-86
2022/10/03 17:11:53;;;;;;;;;;;;;;;;;;5097115;28;19937;-89
2022/10/03 17:14:19;;;;;;;;;;;;;;;;;;5112590;28;19965;-87
2022/10/03 17:17:07;;;;;;;;;;;;;;;;;;5095272;28;19916;-89
2022/10/03 17:19:39;;;;;;;;;;;;;;;;;;5066241;28;20311;-88
2022/10/03 17:22:25;;;;;;;;;;;;;;;;;;5111270;28;19964;-87
2022/10/03 17:24:54;;;;;;;;;;;;;;;;;;5087365;28;19916;-89
2022/10/03 17:27:21;;;;;;;;;;;;;;;;;;5112650;28;20241;-88
2022/10/03 17:29:55;;;;;;;;;;;;;;;;;;5095000;28;19923;-87
2022/10/03 17:32:34;;;;;;;;;;;;;;;;;;5094695;28;19923;-89
2022/10/03 17:35:01;;;;;;;;;;;;;;;;;;5077615;28;19923;-87
2022/10/03 17:37:26;;;;;;;;;;;;;;;;;;5093600;28;19916;-89
2022/10/03 17:39:55;;;;;;;;;;;;;;;;;;5096220;28;19923;-88
2022/10/03 17:42:34;;;;;;;;;;;;;;;;;;5095864;28;19971;-87
2022/10/03 17:45:05;;;;;;;;;;;;;;;;;;5098660;28;19916;-89
2022/10/03 17:47:34;;;;;;;;;;;;;;;;;;5095952;28;20326;-88
2022/10/03 17:50:07;;;;;;;;;;;;;;;;;;5094727;28;19916;-88
2022/10/03 17:52:32;;;;;;;;;;;;;;;;;;5094541;28;19912;-90
2022/10/03 17:55:04;;;;;;;;;;;;;;;;;;5077959;28;20306;-87
2022/10/03 17:57:29;;;;;;;;;;;;;;;;;;5085114;28;19904;-85
2022/10/03 17:59:57;;;;;;;;;;;;;;;;;;5105413;28;19924;-86
2022/10/03 18:02:25;;;;;;;;;;;;;;;;;;5095134;28;19945;-85
2022/10/03 18:05:17;;;;;;;;;;;;;;;;;;5094135;28;20280;-87
2022/10/03 18:07:42;;;;;;;;;;;;;;;;;;5092575;28;20280;-85
2022/10/03 18:10:20;;;;;;;;;;;;;;;;;;5093467;28;19998;-84
2022/10/03 18:12:47;;;;;;;;;;;;;;;;;;5093338;28;19965;-86
2022/10/03 18:15:24;;;;;;;;;;;;;;;;;;5093905;28;19916;-88
2022/10/03 18:18:08;;;;;;;;;;;;;;;;;;5093954;28;19920;-87